Time;durP1;ratioP1;P1;durP2;ratioP2;P2;SDS_P1;SDS_P2;PMS_P1;PMS_P2;Temp;Humidity;BMP_temperature;BMP_pressure;BME280_temperature;BME280_humidity;BME280_pressure;Samples;Min_cycle;Max_cycle;Signal;HPM_P1;HPM_P2
2021/11/04 00:01:35;;;;;;;71.57;29.58;;;;;;;7.77;89.07;99608.97;5085217;28;20051;-70
2021/11/04 00:04:00;;;;;;;76.78;31.08;;;;;;;7.73;89.03;99604.72;5084957;28;20026;-70
2021/11/04 00:06:25;;;;;;;73.93;32.13;;;;;;;7.76;89.07;99620.19;5084315;28;20038;-70
2021/11/04 00:08:51;;;;;;;74.55;31.20;;;;;;;7.75;89.41;99618.44;5084765;28;20024;-68
2021/11/04 00:11:16;;;;;;;78.40;31.55;;;;;;;7.79;89.13;99620.16;5084933;28;20058;-70
2021/11/04 00:13:42;;;;;;;85.40;33.28;;;;;;;7.72;89.34;99614.19;5084974;28;20305;-70
2021/11/04 00:16:10;;;;;;;75.25;32.20;;;;;;;7.74;89.04;99620.19;5084784;28;20473;-70
2021/11/04 00:18:37;;;;;;;100.28;35.80;;;;;;;7.71;89.29;99619.38;5084851;28;20035;-70
2021/11/04 00:21:02;;;;;;;91.13;33.72;;;;;;;7.58;89.15;99609.16;5084717;28;20078;-70
2021/11/04 00:23:28;;;;;;;88.35;34.65;;;;;;;7.63;89.49;99616.84;5084502;28;20020;-71
2021/11/04 00:25:54;;;;;;;98.55;36.92;;;;;;;7.59;89.44;99618.59;5084527;28;20028;-69
2021/11/04 00:28:19;;;;;;;92.95;37.28;;;;;;;7.61;89.51;99619.44;5084125;28;20034;-71
2021/11/04 00:30:45;;;;;;;100.25;37.35;;;;;;;7.60;89.66;99619.47;5084424;28;20029;-71
2021/11/04 00:33:11;;;;;;;119.05;38.33;;;;;;;7.60;89.52;99616.88;5099476;28;20131;-71
2021/11/04 00:35:36;;;;;;;106.78;38.35;;;;;;;7.57;89.65;99623.78;5084266;28;20021;-70
2021/11/04 00:38:03;;;;;;;106.60;38.05;;;;;;;7.56;89.59;99628.97;5084214;28;20523;-70
2021/11/04 00:40:28;;;;;;;102.05;39.03;;;;;;;7.58;89.78;99629.81;5084047;28;20020;-70
2021/11/04 00:42:54;;;;;;;111.72;37.63;;;;;;;7.49;89.56;99612.66;5084041;28;20513;-70
2021/11/04 00:45:21;;;;;;;111.80;41.80;;;;;;;7.56;89.64;99624.66;5083848;28;20016;-71
2021/11/04 00:47:47;;;;;;;105.75;38.05;;;;;;;7.48;89.93;99621.28;5083869;28;20062;-70
2021/11/04 00:50:14;;;;;;;112.70;40.05;;;;;;;7.50;89.97;99624.72;5083873;28;20024;-70
2021/11/04 00:52:39;;;;;;;107.95;38.90;;;;;;;7.47;89.74;99623.88;5083983;28;20082;-71
2021/11/04 00:55:06;;;;;;;116.93;40.05;;;;;;;7.42;89.75;99624.78;5083730;28;20438;-70
2021/11/04 00:57:32;;;;;;;110.32;41.63;;;;;;;7.43;89.59;99631.66;5083811;28;20040;-70
2021/11/04 00:59:58;;;;;;;126.63;41.78;;;;;;;7.45;89.54;99639.38;5083676;28;20020;-71
2021/11/04 01:02:23;;;;;;;113.60;40.63;;;;;;;7.42;89.59;99632.53;5083761;28;20031;-69
2021/11/04 01:04:49;;;;;;;114.35;39.90;;;;;;;7.40;89.50;99623.06;5083509;28;20044;-70
2021/11/04 01:07:14;;;;;;;112.82;40.58;;;;;;;7.39;89.30;99624.81;5083783;28;20084;-70
2021/11/04 01:09:39;;;;;;;121.88;42.67;;;;;;;7.28;89.43;99605.97;5083472;28;20060;-71
2021/11/04 01:12:05;;;;;;;107.38;40.28;;;;;;;7.38;89.22;99630.81;5083726;28;20339;-71
2021/11/04 01:14:31;;;;;;;123.95;41.65;;;;;;;7.42;89.37;99626.50;5083613;28;20050;-72
2021/11/04 01:16:56;;;;;;;126.85;42.15;;;;;;;7.44;89.44;99628.19;5083532;28;20028;-72
2021/11/04 01:19:21;;;;;;;124.88;44.50;;;;;;;7.42;89.33;99623.91;5082900;28;20496;-71
2021/11/04 01:21:47;;;;;;;122.50;44.42;;;;;;;7.47;89.53;99626.47;5083675;28;20030;-71
2021/11/04 01:24:12;;;;;;;121.07;43.85;;;;;;;7.47;89.38;99634.22;5083277;28;20123;-71
2021/11/04 01:26:38;;;;;;;115.15;41.28;;;;;;;7.45;89.48;99626.47;5083357;28;20028;-71
2021/11/04 01:29:03;;;;;;;122.65;41.70;;;;;;;7.46;89.63;99624.75;5083604;28;20028;-71
2021/11/04 01:31:28;;;;;;;103.30;38.88;;;;;;;7.47;89.96;99632.50;5083524;28;20105;-71
2021/11/04 01:33:54;;;;;;;120.95;42.63;;;;;;;7.49;90.02;99629.91;5098638;28;20335;-71
2021/11/04 01:36:19;;;;;;;108.60;41.38;;;;;;;7.52;90.15;99627.28;5083284;28;20131;-71
2021/11/04 01:38:44;;;;;;;111.80;40.90;;;;;;;7.52;90.05;99623.00;5083043;28;20036;-71
2021/11/04 01:41:10;;;;;;;120.38;42.67;;;;;;;7.52;90.13;99616.97;5083227;28;20020;-71
2021/11/04 01:43:35;;;;;;;114.63;42.75;;;;;;;7.52;89.92;99628.16;5083248;28;20531;-71
2021/11/04 01:46:02;;;;;;;113.38;40.80;;;;;;;7.53;89.89;99624.69;5083129;28;20080;-72
2021/11/04 01:48:27;;;;;;;114.25;40.95;;;;;;;7.50;89.97;99619.56;5082259;28;20048;-72
2021/11/04 01:50:54;;;;;;;108.90;42.65;;;;;;;7.54;89.75;99625.56;5082216;28;20031;-71
2021/11/04 01:53:21;;;;;;;109.78;40.30;;;;;;;7.53;89.77;99627.28;5082340;28;20029;-72
2021/11/04 01:55:48;;;;;;;114.78;39.83;;;;;;;7.52;89.75;99627.28;5083063;28;20044;-71
2021/11/04 01:58:13;;;;;;;106.07;38.17;;;;;;;7.48;89.75;99628.16;5082986;28;20089;-71
2021/11/04 02:00:39;;;;;;;112.88;40.45;;;;;;;7.47;89.65;99635.06;5083103;28;20020;-71
2021/11/04 02:03:32;;;;;;;109.43;40.47;;;;;;;7.44;89.93;99629.94;5082826;28;20028;-71
2021/11/04 02:06:13;;;;;;;109.35;41.33;;;;;;;7.47;89.99;99634.22;5083034;28;20029;-71
2021/11/04 02:08:56;;;;;;;110.47;40.97;;;;;;;7.41;89.67;99620.47;5083204;28;20126;-71
2021/11/04 02:11:34;;;;;;;108.30;40.97;;;;;;;7.49;90.03;99635.06;5083334;28;20036;-71
2021/11/04 02:14:02;;;;;;;119.43;42.42;;;;;;;7.51;89.83;99628.13;5083249;28;20024;-72
2021/11/04 02:16:29;;;;;;;110.38;40.58;;;;;;;7.44;89.78;99622.19;5083137;28;20027;-68
2021/11/04 02:18:59;;;;;;;111.53;42.78;;;;;;;7.51;89.53;99630.72;5083341;28;20020;-71
2021/11/04 02:21:39;;;;;;;110.05;42.10;;;;;;;7.50;89.58;99640.22;5083209;28;20020;-71
2021/11/04 02:24:16;;;;;;;106.20;41.17;;;;;;;7.46;89.42;99642.84;5082700;28;20031;-71
2021/11/04 02:26:42;;;;;;;117.82;41.75;;;;;;;7.44;89.59;99641.09;5083034;28;20090;-71
2021/11/04 02:29:08;;;;;;;115.55;42.17;;;;;;;7.48;89.53;99651.41;5083800;28;20020;-71
2021/11/04 02:31:34;;;;;;;99.38;39.15;;;;;;;7.46;89.31;99655.75;5086792;28;20096;-71
2021/11/04 02:34:00;;;;;;;105.35;39.58;;;;;;;7.44;89.38;99643.69;5086451;28;20484;-71
2021/11/04 02:36:26;;;;;;;98.68;36.45;;;;;;;7.39;89.49;99640.31;5086673;28;20032;-70
2021/11/04 02:38:51;;;;;;;105.57;38.65;;;;;;;7.40;89.55;99643.72;5086676;28;20074;-71
2021/11/04 02:41:17;;;;;;;118.20;38.15;;;;;;;7.36;89.29;99635.16;5086590;28;20329;-70
2021/11/04 02:43:43;;;;;;;111.75;41.58;;;;;;;7.35;89.19;99641.19;5086444;28;20035;-71
2021/11/04 02:46:09;;;;;;;111.85;39.00;;;;;;;7.30;89.27;99648.13;5086553;28;20028;-71
2021/11/04 02:48:35;;;;;;;105.80;39.20;;;;;;;7.26;89.51;99657.59;5086298;28;20095;-71
2021/11/04 02:51:01;;;;;;;111.97;40.22;;;;;;;7.28;89.69;99655.00;5086740;28;20313;-72
2021/11/04 02:53:28;;;;;;;102.82;39.83;;;;;;;7.30;89.88;99646.38;5086575;28;20016;-72
2021/11/04 02:55:54;;;;;;;96.57;37.63;;;;;;;7.36;89.80;99653.25;5086434;28;20104;-72
2021/11/04 02:58:20;;;;;;;94.40;39.30;;;;;;;7.39;90.05;99660.97;5086182;28;20044;-72
2021/11/04 03:00:53;;;;;;;96.20;38.28;;;;;;;7.42;90.18;99655.78;5086178;28;20020;-72
2021/11/04 03:03:18;;;;;;;;;;;;;;;7.50;90.20;99655.72;5086574;28;20028;-72
2021/11/04 03:05:44;;;;;;;97.47;36.58;;;;;;;7.50;89.94;99652.25;5086280;28;19939;-71
2021/11/04 03:08:09;;;;;;;98.72;37.50;;;;;;;7.49;90.10;99645.41;5086084;28;20024;-72
2021/11/04 03:10:35;;;;;;;95.88;37.70;;;;;;;7.54;90.31;99651.38;5085869;28;20040;-72
2021/11/04 03:13:00;;;;;;;84.60;35.63;;;;;;;7.59;90.34;99649.59;5086105;28;20052;-72
2021/11/04 03:15:29;;;;;;;83.13;36.75;;;;;;;7.62;90.39;99651.31;5085994;28;20020;-72
2021/11/04 03:17:55;;;;;;;86.93;37.08;;;;;;;7.65;90.41;99652.13;5085687;28;20119;-71
2021/11/04 03:20:20;;;;;;;89.20;36.90;;;;;;;7.70;90.35;99662.41;5085732;28;20085;-71
2021/11/04 03:22:47;;;;;;;89.78;38.03;;;;;;;7.69;90.21;99658.13;5085831;28;20029;-71
2021/11/04 03:25:15;;;;;;;80.07;35.70;;;;;;;7.78;90.16;99663.22;5085690;28;20049;-71
2021/11/04 03:27:43;;;;;;;81.55;33.90;;;;;;;7.83;90.33;99667.50;5084659;28;20459;-71
2021/11/04 03:30:11;;;;;;;77.97;33.95;;;;;;;7.87;90.13;99671.75;5084904;28;20483;-71
2021/11/04 03:32:37;;;;;;;76.60;34.10;;;;;;;7.90;90.19;99663.97;5085416;28;20025;-70
2021/11/04 03:35:04;;;;;;;77.22;34.15;;;;;;;7.91;89.90;99665.69;5085920;28;20076;-71
2021/11/04 03:37:31;;;;;;;72.57;34.92;;;;;;;7.92;90.12;99665.66;5085776;28;20104;-71
2021/11/04 03:39:58;;;;;;;75.20;35.30;;;;;;;7.93;90.28;99662.22;5085491;28;20480;-70
2021/11/04 03:42:24;;;;;;;78.22;35.03;;;;;;;7.96;89.98;99674.25;5083421;28;20016;-71
2021/11/04 03:44:50;;;;;;;72.43;32.38;;;;;;;7.93;90.09;99656.19;5085690;28;20039;-71
2021/11/04 03:47:17;;;;;;;72.10;35.00;;;;;;;7.96;90.11;99669.09;5085713;28;20024;-72
2021/11/04 03:49:49;;;;;;;71.57;33.00;;;;;;;7.96;89.98;99670.81;5085691;28;20052;-71
2021/11/04 03:52:15;;;;;;;72.03;34.83;;;;;;;7.97;89.92;99668.22;5085664;28;20031;-71
2021/11/04 03:54:41;;;;;;;70.55;33.42;;;;;;;7.99;89.82;99671.66;5085175;28;20081;-71
2021/11/04 03:57:06;;;;;;;70.97;33.65;;;;;;;7.99;89.94;99670.78;5085421;28;20040;-71
2021/11/04 03:59:32;;;;;;;74.25;33.97;;;;;;;7.99;89.95;99665.59;5085343;28;20028;-71
2021/11/04 04:01:57;;;;;;;71.13;33.42;;;;;;;7.91;89.77;99666.56;5085232;28;20515;-70
2021/11/04 04:04:23;;;;;;;72.00;34.88;;;;;;;7.90;89.46;99669.16;5084881;28;20020;-71
2021/11/04 04:06:55;;;;;;;74.25;35.00;;;;;;;7.82;89.31;99666.63;5084865;28;20025;-71
2021/11/04 04:09:24;;;;;;;82.20;36.75;;;;;;;7.77;89.06;99664.09;5084832;28;20036;-71
2021/11/04 04:11:51;;;;;;;93.05;36.47;;;;;;;7.72;89.14;99665.00;5084977;28;20024;-68
2021/11/04 04:14:16;;;;;;;91.38;38.75;;;;;;;7.66;89.13;99671.94;5085036;28;20024;-71
2021/11/04 04:16:42;;;;;;;94.53;37.47;;;;;;;7.59;89.35;99667.69;5084635;28;20071;-71
2021/11/04 04:19:08;;;;;;;96.68;36.75;;;;;;;7.59;89.18;99670.25;5085059;28;20020;-71
2021/11/04 04:21:33;;;;;;;109.75;42.22;;;;;;;7.55;89.07;99671.16;5084774;28;20050;-71
2021/11/04 04:23:59;;;;;;;91.13;38.50;;;;;;;7.47;89.28;99672.94;5084571;28;20056;-72
2021/11/04 04:26:24;;;;;;;104.47;39.25;;;;;;;7.51;89.17;99679.78;5084236;28;20066;-71
2021/11/04 04:28:49;;;;;;;102.93;39.25;;;;;;;7.50;89.25;99683.25;5084226;28;20017;-71
2021/11/04 04:31:15;;;;;;;101.28;39.40;;;;;;;7.54;89.72;99684.97;5084256;28;20546;-71
2021/11/04 04:33:41;;;;;;;104.25;39.67;;;;;;;7.56;89.51;99683.22;5099759;28;20075;-71
2021/11/04 04:36:06;;;;;;;102.63;39.38;;;;;;;7.56;89.46;99680.63;5084353;28;20052;-71
2021/11/04 04:38:32;;;;;;;94.18;37.38;;;;;;;7.63;89.78;99687.47;5084408;28;20025;-71
2021/11/04 04:40:57;;;;;;;85.75;37.15;;;;;;;7.67;89.83;99688.28;5084191;28;20220;-71
2021/11/04 04:43:23;;;;;;;86.88;37.10;;;;;;;7.68;89.86;99688.28;5084283;28;20076;-72
2021/11/04 04:45:48;;;;;;;80.18;37.22;;;;;;;7.69;89.61;99694.31;5082833;28;20022;-71
2021/11/04 04:48:13;;;;;;;82.63;34.78;;;;;;;7.70;89.59;99690.84;5084190;28;20042;-71
2021/11/04 04:50:40;;;;;;;78.90;34.42;;;;;;;7.72;89.66;99696.00;5084184;28;20028;-71
2021/11/04 04:53:06;;;;;;;75.15;32.05;;;;;;;7.73;89.76;99698.56;5083920;28;20028;-71
2021/11/04 04:55:31;;;;;;;78.47;34.78;;;;;;;7.62;89.68;99685.75;5084092;28;20052;-71
2021/11/04 04:57:57;;;;;;;70.80;31.02;;;;;;;7.73;89.94;99703.75;5084010;28;20024;-71
2021/11/04 05:00:22;;;;;;;67.13;31.80;;;;;;;7.70;89.80;99698.59;5084013;28;20031;-71
2021/11/04 05:02:48;;;;;;;60.85;27.40;;;;;;;7.64;89.71;99699.50;5083796;28;20025;-71
2021/11/04 05:05:14;;;;;;;67.40;29.85;;;;;;;7.56;89.15;99706.47;5083893;28;20475;-71
2021/11/04 05:07:40;;;;;;;69.05;31.00;;;;;;;7.50;89.30;99711.66;5083643;28;20020;-72
2021/11/04 05:10:08;;;;;;;69.05;29.77;;;;;;;7.44;89.31;99712.59;5083528;28;20032;-72
2021/11/04 05:12:34;;;;;;;66.38;27.50;;;;;;;7.35;89.22;99710.06;5083860;28;20108;-72
2021/11/04 05:14:59;;;;;;;67.05;27.80;;;;;;;7.32;89.50;99710.91;5083752;28;20035;-72
2021/11/04 05:17:25;;;;;;;70.05;26.20;;;;;;;7.32;89.53;99719.53;5083371;28;20452;-71
2021/11/04 05:19:50;;;;;;;64.65;27.23;;;;;;;7.27;89.41;99716.13;5083546;28;20031;-72
2021/11/04 05:22:16;;;;;;;54.90;24.08;;;;;;;7.17;89.24;99710.13;5083545;28;20024;-72
2021/11/04 05:24:41;;;;;;;50.40;20.30;;;;;;;7.20;89.30;99724.78;5083050;28;20016;-67
2021/11/04 05:27:07;;;;;;;50.58;20.33;;;;;;;7.16;89.05;99720.47;5083150;28;20047;-72
2021/11/04 05:29:33;;;;;;;52.00;22.58;;;;;;;7.12;89.13;99714.50;5083303;28;20016;-71
2021/11/04 05:31:59;;;;;;;59.55;24.23;;;;;;;7.02;89.63;99721.41;5083555;28;20059;-69
2021/11/04 05:34:25;;;;;;;57.03;23.58;;;;;;;7.01;89.98;99721.44;5083540;28;20132;-69
2021/11/04 05:36:50;;;;;;;57.50;23.13;;;;;;;7.01;89.88;99724.00;5098796;28;20130;-74
2021/11/04 05:39:16;;;;;;;54.85;21.73;;;;;;;6.96;90.13;99715.41;5082894;28;20369;-74
2021/11/04 05:41:42;;;;;;;45.90;17.77;;;;;;;6.88;90.22;99711.16;5083550;28;20158;-75
2021/11/04 05:44:07;;;;;;;45.28;20.27;;;;;;;6.97;89.99;99718.00;5083037;28;20089;-75
2021/11/04 05:46:33;;;;;;;53.85;21.40;;;;;;;6.97;90.01;99723.16;5083478;28;20111;-75
2021/11/04 05:48:58;;;;;;;51.38;20.52;;;;;;;6.93;90.15;99726.63;5083022;28;20028;-75
2021/11/04 05:51:23;;;;;;;56.42;21.30;;;;;;;6.81;90.31;99712.03;5083350;28;20044;-75
2021/11/04 05:53:49;;;;;;;40.53;15.45;;;;;;;6.87;90.74;99724.06;5083235;28;20024;-75
2021/11/04 05:56:14;;;;;;;43.88;18.15;;;;;;;6.87;90.27;99732.66;5081684;28;20021;-75
2021/11/04 05:58:40;;;;;;;51.72;18.52;;;;;;;6.85;90.02;99720.63;5083163;28;20047;-75
2021/11/04 06:01:05;;;;;;;48.22;18.77;;;;;;;6.83;90.31;99730.97;5082712;28;20088;-75
2021/11/04 06:03:30;;;;;;;45.40;18.67;;;;;;;6.79;90.30;99716.34;5082379;28;20088;-74
2021/11/04 06:05:56;;;;;;;38.95;16.73;;;;;;;6.85;90.17;99728.38;5085993;28;20522;-71
2021/11/04 06:08:22;;;;;;;34.88;14.77;;;;;;;6.79;90.29;99735.25;5086266;28;20024;-74
2021/11/04 06:10:47;;;;;;;49.00;20.10;;;;;;;6.77;90.18;99736.16;5087021;28;20024;-73
2021/11/04 06:13:12;;;;;;;34.45;13.30;;;;;;;6.83;89.89;99738.69;5087173;28;20025;-75
2021/11/04 06:15:38;;;;;;;47.65;18.83;;;;;;;6.79;89.75;99747.28;5087327;28;20020;-75
2021/11/04 06:18:03;;;;;;;47.88;17.08;;;;;;;6.71;90.45;99747.31;5102599;28;20479;-74
2021/11/04 06:20:29;;;;;;;47.58;18.42;;;;;;;6.56;90.77;99740.50;5086943;28;20076;-75
2021/11/04 06:22:55;;;;;;;54.95;20.17;;;;;;;6.60;90.93;99755.09;5087005;28;20334;-74
2021/11/04 06:25:20;;;;;;;50.72;20.92;;;;;;;6.62;91.03;99749.94;5086533;28;20108;-74
2021/11/04 06:27:46;;;;;;;30.58;13.68;;;;;;;6.66;91.08;99759.41;5086915;28;20115;-75
2021/11/04 06:30:11;;;;;;;37.75;16.67;;;;;;;6.60;91.31;99749.94;5086824;28;20024;-75
2021/11/04 06:32:37;;;;;;;41.47;18.08;;;;;;;6.54;91.51;99758.56;5086776;28;20286;-74
2021/11/04 06:35:04;;;;;;;51.13;20.98;;;;;;;6.64;91.46;99767.16;5086697;28;20024;-74
2021/11/04 06:37:30;;;;;;;42.42;17.08;;;;;;;6.69;91.45;99764.56;5086547;28;20025;-74
2021/11/04 06:39:55;;;;;;;35.53;15.45;;;;;;;6.74;90.96;99761.97;5086472;28;20035;-74
2021/11/04 06:42:21;;;;;;;39.60;17.42;;;;;;;6.70;90.98;99763.69;5086762;28;20052;-74
2021/11/04 06:44:46;;;;;;;28.90;14.15;;;;;;;6.76;90.63;99773.97;5085047;28;20545;-72
2021/11/04 06:47:24;;;;;;;33.53;14.52;;;;;;;6.77;90.77;99775.69;5086559;28;20035;-70
2021/11/04 06:49:52;;;;;;;33.70;16.00;;;;;;;6.77;90.80;99782.59;5086390;28;20039;-65
2021/11/04 06:52:23;;;;;;;32.97;15.55;;;;;;;6.75;90.80;99779.16;5086421;28;20365;-69
2021/11/04 06:54:50;;;;;;;36.72;16.02;;;;;;;6.73;90.82;99775.69;5086219;28;20028;-70
2021/11/04 06:57:18;;;;;;;38.50;14.23;;;;;;;6.73;90.92;99784.31;5086207;28;20039;-70
2021/11/04 06:59:48;;;;;;;35.90;16.15;;;;;;;6.72;90.83;99781.72;5085124;28;20088;-71
2021/11/04 07:02:30;;;;;;;40.22;15.30;;;;;;;6.74;90.74;99767.97;5086401;28;20024;-71
2021/11/04 07:04:57;;;;;;;33.85;15.32;;;;;;;6.69;90.75;99767.97;5085406;28;20024;-73
2021/11/04 07:07:22;;;;;;;31.95;14.82;;;;;;;6.68;90.88;99765.41;5085920;28;20115;-72
2021/11/04 07:09:49;;;;;;;34.10;16.52;;;;;;;6.69;91.05;99773.13;5101266;28;20040;-72
2021/11/04 07:12:14;;;;;;;26.13;11.77;;;;;;;6.74;90.94;99772.28;5086285;28;20075;-73
2021/11/04 07:14:42;;;;;;;37.33;16.20;;;;;;;6.73;91.07;99783.44;5086175;28;20046;-72
2021/11/04 07:17:09;;;;;;;33.58;14.88;;;;;;;6.79;90.91;99783.41;5086014;28;20028;-72
2021/11/04 07:19:35;;;;;;;24.77;12.57;;;;;;;6.77;91.08;99788.59;5101538;28;20028;-72
2021/11/04 07:22:50;;;;;;;31.85;15.25;;;;;;;6.87;90.93;99788.59;5086032;28;20021;-72
2021/11/04 07:25:19;;;;;;;25.90;13.02;;;;;;;6.84;90.66;99789.44;5083785;28;20062;-73
2021/11/04 07:28:13;;;;;;;28.23;14.25;;;;;;;6.78;90.86;99779.13;5085380;28;20258;-73
2021/11/04 07:30:39;;;;;;;25.38;13.18;;;;;;;6.79;90.72;99778.25;5085140;28;20074;-72
2021/11/04 07:33:06;;;;;;;26.15;13.88;;;;;;;6.80;90.60;99778.28;5085836;28;20072;-72
2021/11/04 07:35:34;;;;;;;27.00;12.43;;;;;;;6.88;90.62;99793.75;5085783;28;20020;-73
2021/11/04 07:38:01;;;;;;;25.70;11.75;;;;;;;6.88;90.68;99795.44;5085611;28;20024;-73
2021/11/04 07:40:29;;;;;;;31.65;16.25;;;;;;;6.94;90.45;99796.28;5084704;28;20082;-72
2021/11/04 07:42:55;;;;;;;31.30;15.35;;;;;;;6.92;90.59;99798.00;5085311;28;20050;-73
2021/11/04 07:45:22;;;;;;;28.60;14.55;;;;;;;6.92;90.70;99798.00;5085368;28;20488;-72
2021/11/04 07:47:48;;;;;;;30.33;15.52;;;;;;;6.98;90.41;99801.44;5085227;28;20024;-73
2021/11/04 07:50:17;;;;;;;27.42;15.57;;;;;;;6.83;90.49;99787.72;5083808;28;20024;-72
2021/11/04 07:52:43;;;;;;;29.90;15.38;;;;;;;6.95;90.47;99802.28;5085248;28;20103;-73
2021/11/04 07:55:09;;;;;;;32.75;13.02;;;;;;;6.94;90.09;99801.47;5084906;28;20016;-72
2021/11/04 07:57:37;;;;;;;37.90;17.00;;;;;;;6.86;90.58;99802.31;5084920;28;20021;-72
2021/11/04 08:00:07;;;;;;;24.27;12.25;;;;;;;6.94;90.43;99805.75;5085263;28;20028;-73
2021/11/04 08:02:33;;;;;;;29.27;13.98;;;;;;;6.97;90.13;99802.28;5083604;28;20029;-71
2021/11/04 08:04:58;;;;;;;24.27;13.05;;;;;;;6.97;89.88;99812.63;5085149;28;20024;-72
2021/11/04 08:07:24;;;;;;;26.95;15.73;;;;;;;6.91;89.28;99809.22;5084850;28;20520;-72
2021/11/04 08:09:49;;;;;;;19.45;11.30;;;;;;;6.88;89.42;99811.81;5083051;28;20047;-73
2021/11/04 08:12:15;;;;;;;24.63;12.45;;;;;;;6.86;89.42;99815.22;5085049;28;20424;-73
2021/11/04 08:14:41;;;;;;;27.80;16.80;;;;;;;6.79;89.71;99823.00;5100489;28;20016;-73
2021/11/04 08:17:07;;;;;;;31.10;16.20;;;;;;;6.80;89.93;99836.75;5084599;28;20472;-72
2021/11/04 08:19:34;;;;;;;29.48;16.75;;;;;;;6.78;90.21;99841.06;5084719;28;20024;-72
2021/11/04 08:22:01;;;;;;;33.13;16.52;;;;;;;6.72;90.30;99847.09;5084638;28;20086;-72
2021/11/04 08:24:26;;;;;;;34.53;16.58;;;;;;;6.79;90.15;99855.66;5082803;28;20035;-72
2021/11/04 08:26:51;;;;;;;35.58;15.63;;;;;;;6.80;90.09;99865.13;5084124;28;20103;-72
2021/11/04 08:29:17;;;;;;;25.92;13.18;;;;;;;6.81;89.96;99864.28;5084868;28;20016;-72
2021/11/04 08:31:42;;;;;;;27.13;12.35;;;;;;;6.85;89.69;99870.28;5084541;28;20028;-72
2021/11/04 08:34:07;;;;;;;29.48;15.75;;;;;;;6.90;89.49;99866.00;5084236;28;20090;-71
2021/11/04 08:36:33;;;;;;;24.33;14.68;;;;;;;6.89;89.88;99865.13;5084274;28;20111;-71
2021/11/04 08:38:58;;;;;;;26.58;13.90;;;;;;;6.94;89.84;99863.41;5084393;28;20016;-71
2021/11/04 08:41:23;;;;;;;24.52;15.10;;;;;;;7.04;89.98;99853.03;5084135;28;20017;-71
2021/11/04 08:43:49;;;;;;;23.13;14.45;;;;;;;7.24;90.53;99854.69;5084579;28;20457;-72
2021/11/04 08:46:14;;;;;;;22.30;13.50;;;;;;;7.57;90.29;99863.19;5084181;28;20031;-72
2021/11/04 08:48:40;;;;;;;24.33;12.77;;;;;;;8.01;89.90;99857.75;5084015;28;20460;-71
2021/11/04 08:51:05;;;;;;;21.27;12.20;;;;;;;8.49;88.63;99853.94;5084061;28;20028;-72
2021/11/04 08:53:31;;;;;;;21.85;10.68;;;;;;;8.81;87.60;99865.75;5084011;28;20031;-71
2021/11/04 08:55:56;;;;;;;15.07;11.70;;;;;;;9.11;87.12;99868.91;5083833;28;20020;-72
2021/11/04 08:58:23;;;;;;;22.13;11.88;;;;;;;9.08;85.04;99857.72;5083570;28;20016;-71
2021/11/04 09:00:50;;;;;;;18.92;11.77;;;;;;;8.96;85.03;99863.91;5083883;28;20514;-71
2021/11/04 09:03:16;;;;;;;15.05;8.63;;;;;;;9.12;84.49;99864.59;5083837;28;20032;-71
2021/11/04 09:05:44;;;;;;;13.90;7.50;;;;;;;9.28;83.91;99850.56;5083921;28;20031;-71
2021/11/04 09:08:10;;;;;;;13.02;7.13;;;;;;;9.53;82.20;99857.19;5083653;28;20020;-71
2021/11/04 09:10:36;;;;;;;14.90;8.45;;;;;;;9.54;81.15;99851.13;5083311;28;20024;-71
2021/11/04 09:13:02;;;;;;;13.48;8.57;;;;;;;9.60;80.66;99857.97;5084039;28;20074;-71
2021/11/04 09:15:27;;;;;;;10.40;6.65;;;;;;;9.85;79.63;99871.44;5083663;28;20447;-71
2021/11/04 09:17:52;;;;;;;12.52;6.65;;;;;;;9.87;78.65;99877.44;5083645;28;20512;-71
2021/11/04 09:20:18;;;;;;;11.55;7.68;;;;;;;9.76;78.56;99864.66;5083998;28;20114;-72
2021/11/04 09:22:48;;;;;;;13.82;7.30;;;;;;;9.83;79.18;99867.16;5083919;28;20054;-72
2021/11/04 09:25:15;;;;;;;10.55;7.00;;;;;;;10.01;79.28;99868.63;5083310;28;20024;-71
2021/11/04 09:27:40;;;;;;;13.50;6.55;;;;;;;10.20;78.65;99870.94;5083964;28;20040;-72
2021/11/04 09:30:06;;;;;;;11.95;7.40;;;;;;;10.22;78.66;99869.19;5099200;28;20036;-72
2021/11/04 09:32:32;;;;;;;11.35;6.82;;;;;;;10.24;77.82;99872.63;5083647;28;20108;-72
2021/11/04 09:34:58;;;;;;;10.20;6.28;;;;;;;10.22;78.00;99864.00;5083438;28;20037;-72
2021/11/04 09:37:24;;;;;;;14.80;7.32;;;;;;;10.30;77.45;99862.16;5083763;28;20112;-71
2021/11/04 09:39:49;;;;;;;13.63;6.63;;;;;;;10.51;77.55;99867.91;5098250;28;20436;-72
2021/11/04 09:42:19;;;;;;;9.65;6.22;;;;;;;10.90;76.09;99860.28;5083775;28;20044;-71
2021/11/04 09:44:46;;;;;;;8.38;6.00;;;;;;;11.23;74.31;99870.03;5083804;28;20046;-71
2021/11/04 09:47:11;;;;;;;8.60;5.90;;;;;;;11.73;73.18;99857.75;5083495;28;20066;-71
2021/11/04 09:49:37;;;;;;;9.55;5.72;;;;;;;12.26;71.56;99857.44;5083430;28;20024;-71
2021/11/04 09:52:02;;;;;;;11.80;6.43;;;;;;;12.77;70.39;99857.91;5083505;28;20031;-71
2021/11/04 09:54:28;;;;;;;9.93;6.03;;;;;;;13.35;69.30;99865.91;5083143;28;20017;-70
2021/11/04 09:56:53;;;;;;;10.55;5.38;;;;;;;13.77;66.70;99859.47;5083738;28;20023;-70
2021/11/04 09:59:19;;;;;;;8.20;5.28;;;;;;;14.02;65.26;99868.31;5083169;28;20032;-70
2021/11/04 10:01:46;;;;;;;13.68;5.78;;;;;;;14.41;63.18;99867.91;5083770;28;20393;-70
2021/11/04 10:04:13;;;;;;;9.57;5.85;;;;;;;14.70;62.18;99860.00;5083410;28;20021;-70
2021/11/04 10:06:39;;;;;;;10.55;5.60;;;;;;;15.04;61.32;99853.63;5083203;28;20030;-70
2021/11/04 10:09:09;;;;;;;7.20;4.72;;;;;;;15.70;61.53;99856.47;5083199;28;20535;-70
2021/11/04 10:11:39;;;;;;;7.18;5.35;;;;;;;16.18;58.50;99856.38;5083098;28;20091;-70
2021/11/04 10:14:11;;;;;;;8.77;5.32;;;;;;;16.20;57.31;99858.00;5083327;28;20024;-71
2021/11/04 10:16:37;;;;;;;10.60;5.20;;;;;;;16.20;59.79;99854.50;5083404;28;20075;-71
2021/11/04 10:19:06;;;;;;;14.73;5.45;;;;;;;16.57;59.10;99855.63;5083254;28;20098;-71
2021/11/04 10:21:32;;;;;;;7.95;4.68;;;;;;;17.06;58.46;99848.31;5083210;28;20028;-71
2021/11/04 10:23:59;;;;;;;8.02;5.07;;;;;;;17.76;58.01;99841.69;5083317;28;20024;-70
2021/11/04 10:26:35;;;;;;;9.65;5.05;;;;;;;18.20;56.96;99845.72;5083062;28;20106;-71
2021/11/04 10:29:13;;;;;;;9.55;5.50;;;;;;;17.90;55.98;99851.50;5083336;28;20039;-71
2021/11/04 10:31:57;;;;;;;12.95;6.13;;;;;;;16.86;58.58;99863.13;5083053;28;20028;-70
2021/11/04 10:34:32;;;;;;;7.97;6.35;;;;;;;15.89;59.01;99858.34;5083015;28;20540;-70
2021/11/04 10:37:11;;;;;;;10.23;6.05;;;;;;;14.97;61.46;99852.13;5083110;28;20039;-70
2021/11/04 10:39:38;;;;;;;12.32;6.10;;;;;;;14.53;62.95;99847.53;5083012;28;20040;-70
2021/11/04 10:42:04;;;;;;;8.95;6.20;;;;;;;14.31;63.88;99854.34;5081871;28;20021;-70
2021/11/04 10:44:31;;;;;;;11.40;5.38;;;;;;;14.37;64.72;99848.03;5083015;28;20035;-70
2021/11/04 10:46:57;;;;;;;10.63;5.80;;;;;;;14.75;63.79;99856.34;5083061;28;20053;-70
2021/11/04 10:49:25;;;;;;;9.77;6.65;;;;;;;15.22;62.57;99856.50;5098525;28;20054;-69
2021/11/04 10:52:04;;;;;;;8.75;5.32;;;;;;;16.24;61.66;99850.88;5086490;28;20171;-70
2021/11/04 10:54:43;;;;;;;9.55;5.00;;;;;;;17.66;59.17;99841.25;5086421;28;20193;-70
2021/11/04 10:57:10;;;;;;;8.45;5.10;;;;;;;18.98;56.67;99844.41;5086519;28;20095;-70
2021/11/04 10:59:47;;;;;;;8.23;4.63;;;;;;;19.54;54.87;99841.47;5086506;28;20088;-70
2021/11/04 11:02:14;;;;;;;8.35;5.47;;;;;;;19.43;54.13;99839.44;5086754;28;20021;-69
2021/11/04 11:04:39;;;;;;;9.85;5.13;;;;;;;19.57;53.81;99843.94;5086434;28;20048;-70
2021/11/04 11:07:05;;;;;;;7.25;5.05;;;;;;;19.48;53.48;99835.69;5086408;28;20035;-70
2021/11/04 11:09:33;;;;;;;8.07;5.05;;;;;;;19.10;53.29;99842.09;5084822;28;20392;-70
2021/11/04 11:12:05;;;;;;;10.98;5.97;;;;;;;18.41;54.05;99840.31;5086599;28;20024;-70
2021/11/04 11:14:32;;;;;;;7.18;5.50;;;;;;;17.65;55.99;99840.41;5086236;28;20028;-70
2021/11/04 11:17:00;;;;;;;12.73;6.35;;;;;;;16.98;56.97;99838.16;5086248;28;20036;-70
2021/11/04 11:19:33;;;;;;;12.48;6.63;;;;;;;16.25;57.82;99826.38;5086169;28;20024;-69
2021/11/04 11:21:59;;;;;;;11.38;6.40;;;;;;;16.31;58.48;99820.06;5086258;28;20062;-69
2021/11/04 11:24:33;;;;;;;8.98;6.68;;;;;;;17.03;57.05;99820.44;5085568;28;20017;-70